Black Rock, Arkansas
Current Conditions -  °F | °C
As of 4:15 AM on Saturday 22 Nov 2014 (Local Time) from KARG Reporting Station
Clear Clear  
Wind Chill:   Ceiling: Unl
Heat Index:   Visibility: 1.7mi
Dew Point:   Wind: 3mph
Humidity: 87%   Direction: 350°N
Pressure: 30.21"   Gusts: NA
Location:  36.11°N, 91.1°W
Report Text: KARG 221015Z AUTO 35003KT 1 3/4SM CLR 03/01 A3021 RMK AO1
Loading
Personal Weather Stations






























Interactive Weather Map New forecast layout! Learn more

10-Day Weather Forecast

Advertisements
Track Severe Weather on mobile